Time;durP1;ratioP1;P1;durP2;ratioP2;P2;SDS_P1;SDS_P2;PMS_P1;PMS_P2;Temp;Humidity;BMP_temperature;BMP_pressure;BME280_temperature;BME280_humidity;BME280_pressure;Samples;Min_cycle;Max_cycle;Signal;HPM_P1;HPM_P2
2023/06/17 00:00:16;;;;;;;24.05;8.05;;;;;;;14.56;71.14;101480.94;5056322;28;20066;-75
2023/06/17 00:02:42;;;;;;;22.33;7.97;;;;;;;14.49;71.32;101485.97;5061693;28;20119;-75
2023/06/17 00:05:07;;;;;;;19.08;7.50;;;;;;;14.43;71.56;101491.88;5055067;28;20033;-76
2023/06/17 00:07:33;;;;;;;25.08;8.10;;;;;;;14.36;72.08;101486.09;5060157;28;20399;-75
2023/06/17 00:09:58;;;;;;;18.67;7.18;;;;;;;14.30;72.39;101487.44;5056358;28;20040;-75
2023/06/17 00:12:31;;;;;;;18.48;7.43;;;;;;;14.31;72.60;101494.56;5055046;28;20084;-75
2023/06/17 00:15:01;;;;;;;22.02;6.95;;;;;;;14.27;72.18;101474.16;5062370;28;20024;-75
2023/06/17 00:17:26;;;;;;;21.30;7.43;;;;;;;14.28;73.11;101480.44;5063877;28;20477;-75
2023/06/17 00:19:56;;;;;;;21.65;7.55;;;;;;;14.19;73.82;101476.63;5063893;28;20135;-75
2023/06/17 00:22:24;;;;;;;;;;;;;;;14.27;69.87;101473.31;5041206;28;20128;-75
2023/06/17 00:24:49;;;;;;;18.25;7.10;;;;;;;14.12;73.59;101472.69;5052566;28;20019;-76
2023/06/17 00:27:15;;;;;;;19.67;7.85;;;;;;;14.07;73.57;101466.75;5055998;28;20182;-75
2023/06/17 00:29:41;;;;;;;20.08;7.47;;;;;;;14.02;73.90;101460.88;5061609;28;20024;-76
2023/06/17 00:32:09;;;;;;;20.73;7.93;;;;;;;13.97;74.06;101463.94;5060011;28;20074;-76
2023/06/17 00:34:34;;;;;;;21.38;8.65;;;;;;;13.91;74.42;101462.56;5059826;28;20028;-75
2023/06/17 00:37:00;;;;;;;22.17;7.30;;;;;;;13.87;74.68;101462.94;5063791;28;20433;-76
2023/06/17 00:39:25;;;;;;;21.10;7.75;;;;;;;13.83;75.26;101467.69;5055289;28;20056;-76
2023/06/17 00:41:50;;;;;;;22.60;7.28;;;;;;;13.75;75.36;101470.13;5057578;28;20081;-75
2023/06/17 00:44:15;;;;;;;18.10;6.95;;;;;;;13.70;76.24;101462.38;5053821;28;20060;-76
2023/06/17 00:46:46;;;;;;;19.90;6.85;;;;;;;13.64;76.17;101470.94;5063821;28;20130;-75
2023/06/17 00:49:12;;;;;;;20.30;7.07;;;;;;;13.61;76.52;101474.72;5054179;28;20027;-76
2023/06/17 00:51:38;;;;;;;15.68;6.63;;;;;;;13.56;76.41;101468.84;5058990;28;20024;-76
2023/06/17 00:54:05;;;;;;;19.67;6.72;;;;;;;13.51;77.11;101465.59;5051597;28;20383;-76
2023/06/17 00:56:31;;;;;;;18.35;7.03;;;;;;;13.48;78.13;101467.69;5060185;28;20044;-76
2023/06/17 00:58:57;;;;;;;18.35;6.63;;;;;;;13.42;78.28;101464.47;5042714;28;20036;-75
2023/06/17 01:01:26;;;;;;;17.08;6.38;;;;;;;13.41;78.98;101462.75;5051331;28;20031;-75
2023/06/17 01:03:55;;;;;;;17.93;6.00;;;;;;;13.41;78.53;101468.16;5051737;28;20040;-75
2023/06/17 01:06:33;;;;;;;19.90;6.82;;;;;;;13.38;78.53;101467.53;5056949;28;20056;-74
2023/06/17 01:09:05;;;;;;;17.40;6.60;;;;;;;13.36;78.51;101466.78;5049084;28;20040;-75
2023/06/17 01:11:32;;;;;;;16.85;5.82;;;;;;;13.33;78.81;101467.00;5058653;28;20036;-75
2023/06/17 01:13:58;;;;;;;19.58;7.18;;;;;;;13.28;78.88;101467.34;5061197;28;20024;-75
2023/06/17 01:16:25;;;;;;;18.48;6.35;;;;;;;13.24;78.76;101461.28;5057628;28;20029;-75
2023/06/17 01:18:52;;;;;;;20.30;8.07;;;;;;;13.22;78.33;101467.78;5061455;28;20024;-75
2023/06/17 01:21:18;;;;;;;18.48;7.25;;;;;;;13.14;77.82;101454.84;5051965;28;20029;-75
2023/06/17 01:23:49;;;;;;;18.40;7.30;;;;;;;13.11;78.13;101460.50;5062997;28;20044;-75
2023/06/17 01:26:15;;;;;;;18.98;7.30;;;;;;;13.09;78.76;101459.75;5058313;28;20025;-75
2023/06/17 01:28:44;;;;;;;19.60;8.07;;;;;;;13.06;78.62;101460.84;5057218;28;20112;-75
2023/06/17 01:31:12;;;;;;;21.15;8.10;;;;;;;13.00;78.78;101458.59;5056776;28;20115;-75
2023/06/17 01:33:41;;;;;;;19.60;7.30;;;;;;;12.96;79.37;101459.78;5034792;28;20503;-75
2023/06/17 01:36:18;;;;;;;20.23;7.60;;;;;;;12.91;79.07;101454.75;5046247;28;20052;-75
2023/06/17 01:38:48;;;;;;;20.20;8.05;;;;;;;12.89;79.77;101445.03;5053064;28;20039;-75
2023/06/17 01:41:18;;;;;;;17.10;7.15;;;;;;;12.87;79.72;101447.84;5060084;28;20031;-75
2023/06/17 01:43:44;;;;;;;21.75;7.88;;;;;;;12.87;80.03;101460.44;5056829;28;20029;-75
2023/06/17 01:46:12;;;;;;;22.80;8.23;;;;;;;12.86;79.67;101456.06;5062194;28;20064;-75
2023/06/17 01:48:39;;;;;;;22.83;7.93;;;;;;;12.82;79.28;101452.69;5059453;28;20171;-75
2023/06/17 01:51:10;;;;;;;20.90;7.93;;;;;;;12.80;79.83;101454.66;5059184;28;20040;-75
2023/06/17 01:53:37;;;;;;;20.83;8.48;;;;;;;12.80;79.29;101451.06;5058321;28;20101;-75
2023/06/17 01:56:03;;;;;;;19.20;8.10;;;;;;;12.78;79.76;101453.88;5060273;28;20322;-74
2023/06/17 01:58:28;;;;;;;20.75;8.48;;;;;;;12.75;80.16;101449.59;5058684;28;20507;-74
2023/06/17 02:00:54;;;;;;;19.65;7.90;;;;;;;12.74;80.54;101447.03;5062161;28;20024;-74
2023/06/17 02:03:19;;;;;;;20.67;8.15;;;;;;;12.77;80.42;101453.03;5064501;28;20338;-75
2023/06/17 02:05:44;;;;;;;20.80;8.82;;;;;;;12.81;80.35;101450.13;5055284;28;20048;-74
2023/06/17 02:08:11;;;;;;;18.85;7.28;;;;;;;12.82;80.49;101441.91;5056829;28;20450;-75
2023/06/17 02:10:37;;;;;;;17.80;7.53;;;;;;;12.82;80.03;101444.59;5055096;28;20036;-74
2023/06/17 02:13:03;;;;;;;18.55;7.65;;;;;;;12.79;80.32;101446.69;5062174;28;20468;-74
2023/06/17 02:15:29;;;;;;;18.08;7.28;;;;;;;12.73;80.74;101448.00;5058498;28;20039;-75
2023/06/17 02:17:55;;;;;;;19.65;7.50;;;;;;;12.70;81.01;101448.22;5062503;28;20452;-75
2023/06/17 02:20:20;;;;;;;19.83;8.80;;;;;;;12.66;81.08;101449.41;5062078;28;20451;-74
2023/06/17 02:22:45;;;;;;;22.25;8.50;;;;;;;12.63;81.23;101438.84;5050748;28;20041;-75
2023/06/17 02:25:12;;;;;;;20.02;8.15;;;;;;;12.58;81.83;101434.63;5051212;28;20120;-75
2023/06/17 02:27:37;;;;;;;25.63;8.27;;;;;;;12.57;81.98;101434.75;5059629;28;20531;-75
2023/06/17 02:30:03;;;;;;;25.35;8.38;;;;;;;12.51;81.73;101429.81;5057608;28;20043;-75
2023/06/17 02:32:28;;;;;;;20.23;9.07;;;;;;;12.47;81.93;101423.75;5055103;28;20458;-74
2023/06/17 02:34:54;;;;;;;18.05;7.95;;;;;;;12.46;82.14;101427.44;5050129;28;20392;-75
2023/06/17 02:37:19;;;;;;;22.60;9.05;;;;;;;12.43;82.33;101430.38;5062059;28;20025;-74
2023/06/17 02:39:44;;;;;;;19.85;8.55;;;;;;;12.39;82.71;101418.94;5059282;28;20029;-75
2023/06/17 02:42:11;;;;;;;20.33;8.70;;;;;;;12.39;82.39;101426.16;5041987;28;20108;-75
2023/06/17 02:44:36;;;;;;;19.90;8.00;;;;;;;12.36;82.57;101429.09;5051440;28;20052;-74
2023/06/17 02:47:02;;;;;;;21.77;8.77;;;;;;;12.36;82.66;101426.38;5065120;28;20025;-75
2023/06/17 02:49:27;;;;;;;22.58;8.77;;;;;;;12.36;82.49;101423.69;5057650;28;20123;-74
2023/06/17 02:51:53;;;;;;;21.15;8.98;;;;;;;12.37;82.75;101422.69;5057011;28;20112;-75
2023/06/17 02:54:18;;;;;;;18.52;7.53;;;;;;;12.35;82.61;101414.72;5053071;28;20388;-74
2023/06/17 02:56:44;;;;;;;25.40;8.23;;;;;;;12.32;82.85;101422.19;5058629;28;20032;-75
2023/06/17 02:59:09;;;;;;;20.05;8.95;;;;;;;12.24;83.52;101420.91;5061664;28;20036;-74
2023/06/17 03:01:40;;;;;;;18.30;7.88;;;;;;;12.22;83.47;101420.13;5056846;28;20071;-75
2023/06/17 03:04:06;;;;;;;20.05;8.20;;;;;;;12.18;83.85;101415.06;5056970;28;20036;-75
2023/06/17 03:06:33;;;;;;;19.77;8.23;;;;;;;12.14;84.48;101411.75;5050831;28;20017;-75
2023/06/17 03:09:00;;;;;;;23.45;9.32;;;;;;;12.12;84.18;101410.97;5057396;28;20044;-75
2023/06/17 03:11:25;;;;;;;20.65;9.07;;;;;;;12.10;84.58;101414.78;5055042;28;20068;-75
2023/06/17 03:13:51;;;;;;;19.17;7.93;;;;;;;12.05;84.26;101402.47;5056347;28;20048;-75
2023/06/17 03:16:16;;;;;;;21.90;8.52;;;;;;;12.03;84.30;101409.78;5055947;28;20020;-74
2023/06/17 03:18:42;;;;;;;21.20;8.85;;;;;;;11.99;84.97;101407.44;5060571;28;20494;-75
2023/06/17 03:21:07;;;;;;;20.88;9.38;;;;;;;11.94;84.65;101405.06;5059013;28;20025;-75
2023/06/17 03:23:32;;;;;;;21.08;9.35;;;;;;;11.93;85.10;101403.31;5052546;28;20110;-74
2023/06/17 03:25:58;;;;;;;21.92;9.20;;;;;;;11.94;85.16;101406.91;5061426;28;20029;-75
2023/06/17 03:28:23;;;;;;;23.13;9.30;;;;;;;11.91;85.50;101399.84;5058112;28;20039;-75
2023/06/17 03:30:48;;;;;;;22.15;8.88;;;;;;;11.89;85.64;101405.34;5065580;28;20462;-75
2023/06/17 03:33:14;;;;;;;21.52;9.77;;;;;;;11.92;86.33;101408.78;5052971;28;20106;-75
2023/06/17 03:35:40;;;;;;;22.55;9.48;;;;;;;11.88;86.42;101403.63;5062417;28;20028;-74
2023/06/17 03:38:07;;;;;;;23.38;9.18;;;;;;;11.89;86.15;101404.50;5044907;28;20386;-74
2023/06/17 03:40:33;;;;;;;23.77;8.60;;;;;;;11.87;86.52;101409.13;5058606;28;20119;-75
2023/06/17 03:42:58;;;;;;;22.77;8.35;;;;;;;11.85;86.89;101406.53;5067747;28;20300;-74
2023/06/17 03:45:23;;;;;;;20.60;8.25;;;;;;;11.82;87.07;101409.44;5062408;28;20112;-74
2023/06/17 03:47:49;;;;;;;21.42;8.85;;;;;;;11.84;87.01;101399.41;5044266;28;20044;-74
2023/06/17 03:50:14;;;;;;;22.30;9.27;;;;;;;11.86;87.11;101405.56;5067760;28;20025;-74
2023/06/17 03:52:39;;;;;;;19.08;8.30;;;;;;;11.84;87.39;101407.50;5060487;28;20021;-74
2023/06/17 03:55:05;;;;;;;23.45;9.27;;;;;;;11.87;87.23;101401.91;5055680;28;20079;-75
2023/06/17 03:57:31;;;;;;;21.38;9.45;;;;;;;11.91;87.12;101388.22;5055196;28;20434;-74
2023/06/17 03:59:56;;;;;;;22.83;9.70;;;;;;;11.88;87.31;101392.00;5060782;28;20397;-75
2023/06/17 04:02:22;;;;;;;26.98;9.60;;;;;;;11.89;87.48;101391.88;5057396;28;20021;-74
2023/06/17 04:04:47;;;;;;;25.55;10.88;;;;;;;11.92;88.04;101396.22;5057764;28;20025;-75
2023/06/17 04:07:12;;;;;;;22.23;10.05;;;;;;;11.94;87.84;101399.69;5047142;28;20488;-74
2023/06/17 04:09:38;;;;;;;25.35;10.32;;;;;;;11.97;87.85;101388.69;5064725;28;20110;-74
2023/06/17 04:12:03;;;;;;;22.95;9.57;;;;;;;12.03;88.35;101396.31;5063051;28;20066;-75
2023/06/17 04:14:29;;;;;;;21.85;9.88;;;;;;;12.05;88.24;101396.25;5059794;28;20039;-75
2023/06/17 04:16:56;;;;;;;23.88;10.15;;;;;;;12.11;88.37;101389.53;5064303;28;20043;-75
2023/06/17 04:19:23;;;;;;;20.13;8.73;;;;;;;12.10;88.76;101396.75;5061427;28;20373;-75
2023/06/17 04:21:49;;;;;;;23.10;10.70;;;;;;;12.11;88.82;101401.19;5054140;28;20051;-75
2023/06/17 04:24:14;;;;;;;23.80;10.73;;;;;;;12.12;89.20;101408.28;5059240;28;20526;-75
2023/06/17 04:26:40;;;;;;;27.23;11.45;;;;;;;12.17;89.26;101407.97;5056457;28;20029;-75
2023/06/17 04:29:08;;;;;;;22.48;10.90;;;;;;;12.16;89.82;101408.94;5053861;28;20025;-74
2023/06/17 04:31:35;;;;;;;24.95;11.20;;;;;;;12.20;90.14;101400.53;5060299;28;20388;-75
2023/06/17 04:34:00;;;;;;;26.70;10.68;;;;;;;12.24;89.94;101407.41;5064766;28;20031;-75
2023/06/17 04:36:27;;;;;;;24.23;10.48;;;;;;;12.30;90.28;101405.25;5050840;28;20470;-75
2023/06/17 04:38:53;;;;;;;23.52;10.90;;;;;;;12.35;90.41;101405.78;5060133;28;20032;-75
2023/06/17 04:41:19;;;;;;;25.80;11.68;;;;;;;12.38;90.31;101413.66;5042946;28;20021;-75
2023/06/17 04:43:48;;;;;;;24.63;10.98;;;;;;;12.43;90.14;101408.81;5065223;28;20033;-75
2023/06/17 04:46:16;;;;;;;22.83;12.70;;;;;;;12.45;90.55;101409.53;5051035;28;20028;-75
2023/06/17 04:48:43;;;;;;;28.65;12.07;;;;;;;12.48;90.84;101412.00;5061284;28;20427;-75
2023/06/17 04:51:09;;;;;;;26.80;12.75;;;;;;;12.55;90.95;101415.13;5052235;28;20054;-75
2023/06/17 04:53:35;;;;;;;24.58;13.52;;;;;;;12.62;90.94;101419.13;5062233;28;20468;-75
2023/06/17 04:56:04;;;;;;;24.58;12.57;;;;;;;12.67;90.56;101410.69;5060252;28;20028;-75
2023/06/17 04:58:29;;;;;;;25.88;13.00;;;;;;;12.71;90.23;101414.88;5061223;28;20050;-75
2023/06/17 05:00:54;;;;;;;22.83;12.15;;;;;;;12.79;91.59;101425.09;5048146;28;20032;-75
2023/06/17 05:03:20;;;;;;;23.13;11.80;;;;;;;12.89;90.87;101423.44;5060556;28;20421;-75
2023/06/17 05:05:45;;;;;;;22.60;11.50;;;;;;;12.99;90.61;101412.81;5051501;28;20116;-75
2023/06/17 05:08:10;;;;;;;22.42;11.90;;;;;;;13.07;90.52;101419.34;5059719;28;20029;-75
2023/06/17 05:10:36;;;;;;;23.77;12.52;;;;;;;13.17;89.44;101426.78;5063667;28;20032;-75
2023/06/17 05:13:01;;;;;;;21.80;11.43;;;;;;;13.25;89.65;101424.34;5054983;28;20037;-75
2023/06/17 05:15:27;;;;;;;23.90;11.77;;;;;;;13.34;90.50;101431.81;5042055;28;20108;-75
2023/06/17 05:17:52;;;;;;;23.05;12.43;;;;;;;13.41;90.21;101434.88;5060435;28;20059;-75
2023/06/17 05:20:17;;;;;;;25.42;13.00;;;;;;;13.51;91.06;101429.66;5050814;28;20057;-75
2023/06/17 05:22:42;;;;;;;26.42;12.90;;;;;;;13.58;90.61;101434.47;5063065;28;20125;-75
2023/06/17 05:25:08;;;;;;;23.55;13.43;;;;;;;13.69;91.55;101430.06;5058854;28;20433;-75
2023/06/17 05:27:33;;;;;;;27.02;14.20;;;;;;;13.77;92.09;101420.38;5060244;28;20033;-75
2023/06/17 05:29:58;;;;;;;27.60;14.85;;;;;;;13.89;92.34;101429.38;5059723;28;20020;-75
2023/06/17 05:32:25;;;;;;;30.55;15.40;;;;;;;14.01;92.11;101424.00;5050523;28;20040;-75
2023/06/17 05:34:50;;;;;;;35.70;15.10;;;;;;;14.09;92.72;101418.84;5041317;28;20020;-75
2023/06/17 05:37:15;;;;;;;29.98;15.82;;;;;;;14.19;93.13;101422.56;5054634;28;20079;-75
2023/06/17 05:39:41;;;;;;;29.92;14.52;;;;;;;14.29;92.83;101425.38;5061276;28;20075;-75
2023/06/17 05:42:08;;;;;;;27.88;17.05;;;;;;;14.39;93.49;101422.78;5060893;28;20025;-75
2023/06/17 05:44:33;;;;;;;27.67;15.75;;;;;;;14.48;93.70;101422.03;5056351;28;20029;-75
2023/06/17 05:46:59;;;;;;;31.67;16.75;;;;;;;14.56;92.41;101424.16;5061541;28;20035;-75
2023/06/17 05:49:24;;;;;;;31.30;17.58;;;;;;;14.65;92.47;101426.97;5060300;28;20039;-75
2023/06/17 05:51:49;;;;;;;27.15;17.60;;;;;;;14.74;87.94;101424.50;5047277;28;20038;-75
2023/06/17 05:54:15;;;;;;;29.55;18.13;;;;;;;14.83;91.26;101421.94;5050523;28;20028;-75
2023/06/17 05:56:40;;;;;;;26.60;17.15;;;;;;;14.93;90.87;101423.84;5058197;28;20436;-75
2023/06/17 05:59:06;;;;;;;29.40;17.48;;;;;;;15.02;87.91;101421.25;5057952;28;20124;-75
2023/06/17 06:01:31;;;;;;;29.27;16.85;;;;;;;15.11;88.74;101421.47;5052735;28;20037;-75
2023/06/17 06:03:56;;;;;;;29.73;16.75;;;;;;;15.20;90.17;101421.56;5060882;28;20151;-75
2023/06/17 06:06:21;;;;;;;28.45;18.75;;;;;;;15.30;90.42;101423.47;5054657;28;20061;-75
2023/06/17 06:08:47;;;;;;;28.55;17.52;;;;;;;15.39;90.84;101425.44;5054146;28;20020;-75
2023/06/17 06:11:12;;;;;;;26.40;14.10;;;;;;;15.45;84.54;101429.47;5050094;28;20036;-75
2023/06/17 06:13:37;;;;;;;25.08;13.00;;;;;;;15.49;83.64;101417.38;5066782;28;20134;-74
2023/06/17 06:16:03;;;;;;;25.75;15.88;;;;;;;15.58;84.27;101419.31;5058353;28;20361;-75
2023/06/17 06:18:29;;;;;;;25.95;14.40;;;;;;;15.61;77.04;101418.16;5062152;28;20107;-75
2023/06/17 06:20:54;;;;;;;26.70;15.35;;;;;;;15.68;82.82;101422.94;5062857;28;20100;-75
2023/06/17 06:23:20;;;;;;;22.95;12.73;;;;;;;15.72;77.80;101426.25;5055726;28;20411;-75
2023/06/17 06:25:45;;;;;;;25.73;12.75;;;;;;;15.82;78.75;101420.94;5058252;28;20060;-74
2023/06/17 06:28:10;;;;;;;26.30;15.48;;;;;;;15.89;79.46;101425.66;5059225;28;20021;-74
2023/06/17 06:30:36;;;;;;;24.42;14.27;;;;;;;15.98;81.41;101417.75;5056773;28;20427;-75
2023/06/17 06:33:01;;;;;;;24.60;12.18;;;;;;;16.02;76.56;101417.34;5062070;28;20028;-74
2023/06/17 06:35:26;;;;;;;26.00;13.05;;;;;;;16.07;73.34;101416.94;5055587;28;20392;-74
2023/06/17 06:37:52;;;;;;;24.23;13.45;;;;;;;16.15;76.66;101416.25;5063166;28;20471;-74
2023/06/17 06:40:17;;;;;;;25.25;15.65;;;;;;;16.27;73.53;101419.72;5056409;28;20020;-75
2023/06/17 06:42:43;;;;;;;23.23;12.73;;;;;;;16.35;71.60;101417.19;5062436;28;20040;-75
2023/06/17 06:45:08;;;;;;;27.33;16.27;;;;;;;16.42;72.79;101424.66;5055374;28;20476;-74
2023/06/17 06:47:33;;;;;;;21.02;9.48;;;;;;;16.48;67.81;101425.13;5053308;28;20054;-75
2023/06/17 06:49:59;;;;;;;25.88;14.18;;;;;;;16.61;74.37;101425.72;5065281;28;20453;-74
2023/06/17 06:52:24;;;;;;;19.73;8.50;;;;;;;16.57;62.42;101427.88;5060418;28;20029;-74
2023/06/17 06:54:50;;;;;;;26.02;10.90;;;;;;;16.65;68.58;101424.47;5059212;28;20507;-75
2023/06/17 06:57:15;;;;;;;20.90;10.68;;;;;;;16.68;68.83;101424.19;5064502;28;20021;-75
2023/06/17 06:59:40;;;;;;;22.88;10.60;;;;;;;16.74;67.78;101423.63;5061278;28;20028;-75
2023/06/17 07:02:08;;;;;;;20.52;10.18;;;;;;;16.81;66.28;101423.06;5066444;28;20428;-75
2023/06/17 07:04:34;;;;;;;22.05;10.40;;;;;;;16.87;62.83;101417.97;5053538;28;20083;-75
2023/06/17 07:07:00;;;;;;;25.90;14.15;;;;;;;17.04;68.50;101430.03;5062197;28;20484;-75
2023/06/17 07:09:26;;;;;;;20.52;9.65;;;;;;;17.05;64.15;101431.72;5072189;28;20059;-73
2023/06/17 07:11:51;;;;;;;22.33;11.05;;;;;;;17.08;62.27;101419.72;5074100;28;20037;-74
2023/06/17 07:14:16;;;;;;;27.30;10.10;;;;;;;17.17;62.76;101428.88;5068348;28;20509;-74
2023/06/17 07:16:41;;;;;;;27.48;15.43;;;;;;;17.33;67.59;101428.31;5064648;28;20028;-73
2023/06/17 07:19:07;;;;;;;26.23;15.45;;;;;;;17.45;67.26;101427.16;5066073;28;20423;-74
2023/06/17 07:21:32;;;;;;;26.17;9.80;;;;;;;17.46;61.61;101424.28;5074154;28;20036;-75
2023/06/17 07:23:57;;;;;;;27.35;15.80;;;;;;;17.61;63.06;101423.88;5069521;28;20051;-74
2023/06/17 07:26:23;;;;;;;24.40;14.38;;;;;;;17.73;65.36;101424.56;5068933;28;20111;-75
2023/06/17 07:28:48;;;;;;;24.10;13.40;;;;;;;17.81;63.14;101428.28;5074147;28;20063;-75
2023/06/17 07:31:13;;;;;;;21.45;10.95;;;;;;;17.85;61.92;101428.84;5060670;28;20029;-75
2023/06/17 07:33:42;;;;;;;22.98;11.60;;;;;;;17.95;61.45;101426.13;5067202;28;20029;-75
2023/06/17 07:36:07;;;;;;;20.10;8.95;;;;;;;17.99;60.06;101420.28;5058936;28;20084;-75
2023/06/17 07:38:35;;;;;;;19.75;8.75;;;;;;;18.04;59.70;101425.25;5073353;28;20029;-75
2023/06/17 07:41:01;;;;;;;21.75;9.18;;;;;;;18.12;61.12;101419.06;5075203;28;20035;-75
2023/06/17 07:43:26;;;;;;;22.08;11.65;;;;;;;18.17;60.11;101425.78;5059735;28;20496;-74
2023/06/17 07:45:52;;;;;;;16.60;7.28;;;;;;;18.15;59.17;101416.91;5070742;28;20034;-74
2023/06/17 07:48:17;;;;;;;23.27;12.80;;;;;;;18.29;63.07;101418.28;5074646;28;20020;-73
2023/06/17 07:50:43;;;;;;;21.48;11.43;;;;;;;18.35;59.17;101419.56;5074797;28;20482;-75
2023/06/17 07:53:08;;;;;;;25.92;14.20;;;;;;;18.43;58.01;101416.09;5060647;28;20040;-75
2023/06/17 07:55:34;;;;;;;22.13;12.13;;;;;;;18.52;60.63;101416.06;5072116;28;20100;-74
2023/06/17 07:57:59;;;;;;;20.88;9.02;;;;;;;18.52;58.27;101412.44;5077701;28;20045;-74
2023/06/17 08:00:26;;;;;;;21.02;10.05;;;;;;;18.58;57.92;101414.59;5075834;28;20024;-75
2023/06/17 08:02:52;;;;;;;20.90;9.10;;;;;;;18.62;60.37;101405.09;5065459;28;20115;-74
2023/06/17 08:05:17;;;;;;;20.98;8.40;;;;;;;18.67;59.25;101405.50;5058166;28;20056;-75
2023/06/17 08:07:42;;;;;;;18.52;7.53;;;;;;;18.72;58.78;101407.78;5059980;28;20032;-76
2023/06/17 08:10:08;;;;;;;21.25;9.90;;;;;;;18.82;58.99;101414.00;5059674;28;20116;-77
2023/06/17 08:12:33;;;;;;;19.10;9.25;;;;;;;18.94;55.70;101405.66;5068755;28;20055;-76
2023/06/17 08:14:58;;;;;;;25.60;12.80;;;;;;;19.05;55.08;101416.34;5053753;28;20069;-75
2023/06/17 08:17:24;;;;;;;23.75;12.80;;;;;;;19.12;54.45;101414.72;5064400;28;20028;-76
2023/06/17 08:19:49;;;;;;;21.63;10.07;;;;;;;19.18;56.67;101407.75;5077392;28;20028;-74
2023/06/17 08:22:15;;;;;;;20.88;9.63;;;;;;;19.23;58.11;101402.72;5063679;28;20109;-75
2023/06/17 08:24:40;;;;;;;22.40;10.55;;;;;;;19.36;57.69;101399.59;5062651;28;20034;-77
2023/06/17 08:27:06;;;;;;;22.25;12.32;;;;;;;19.44;51.76;101412.44;5048459;28;20029;-78
2023/06/17 08:29:31;;;;;;;23.33;10.98;;;;;;;19.52;51.02;101405.19;5067512;28;20089;-77
2023/06/17 08:31:56;;;;;;;20.05;8.20;;;;;;;19.51;53.27;101403.47;5059904;28;20032;-76
2023/06/17 08:34:23;;;;;;;19.75;9.18;;;;;;;19.56;50.16;101398.41;5054466;28;20155;-82
2023/06/17 08:36:54;;;;;;;17.63;7.10;;;;;;;19.61;52.94;101399.81;5068853;28;20033;-84
2023/06/17 08:39:19;;;;;;;20.30;8.35;;;;;;;19.73;46.03;101393.06;5063370;28;20082;-76
2023/06/17 08:41:46;;;;;;;15.75;6.32;;;;;;;19.79;48.38;101397.91;5062149;28;20120;-76
2023/06/17 08:44:12;;;;;;;17.65;7.15;;;;;;;19.87;48.17;101389.81;5054777;28;20024;-75
2023/06/17 08:46:39;;;;;;;22.08;6.47;;;;;;;19.89;52.29;101392.38;5055984;28;20033;-74
2023/06/17 08:49:07;;;;;;;13.88;5.15;;;;;;;19.87;53.58;101400.72;5059220;28;20033;-75
2023/06/17 08:51:33;;;;;;;14.18;5.82;;;;;;;19.96;52.66;101400.78;5062480;28;20078;-75
2023/06/17 08:54:00;;;;;;;20.27;6.40;;;;;;;19.94;48.28;101406.38;5056493;28;20025;-75
2023/06/17 08:56:26;;;;;;;20.02;6.10;;;;;;;19.97;48.24;101405.19;5055314;28;20051;-73
2023/06/17 08:58:53;;;;;;;18.52;6.15;;;;;;;20.06;48.30;101396.06;5056974;28;20024;-73
2023/06/17 09:01:20;;;;;;;16.15;6.35;;;;;;;20.19;46.78;101390.16;5048326;28;20021;-74
2023/06/17 09:03:46;;;;;;;17.95;6.15;;;;;;;20.19;48.28;101387.41;5053364;28;20022;-74
2023/06/17 09:06:14;;;;;;;14.18;5.22;;;;;;;20.21;52.32;101390.84;5044727;28;20036;-75
2023/06/17 09:08:41;;;;;;;19.58;7.10;;;;;;;20.32;48.43;101386.97;5053467;28;20032;-73
2023/06/17 09:11:07;;;;;;;16.42;6.38;;;;;;;20.45;49.57;101390.09;5052254;28;20462;-73
2023/06/17 09:13:32;;;;;;;14.55;5.60;;;;;;;20.55;50.39;101399.00;5039459;28;20016;-74
2023/06/17 09:15:57;;;;;;;18.88;6.45;;;;;;;20.56;47.64;101394.44;5050611;28;20028;-74
2023/06/17 09:18:23;;;;;;;13.65;5.15;;;;;;;20.55;52.31;101393.56;5060983;28;20033;-75
2023/06/17 09:20:51;;;;;;;15.52;5.55;;;;;;;20.67;48.28;101396.03;5046933;28;20045;-74
2023/06/17 09:23:17;;;;;;;15.02;5.60;;;;;;;20.68;49.64;101393.13;5040376;28;20052;-73
2023/06/17 09:25:42;;;;;;;11.48;4.95;;;;;;;20.64;52.23;101390.84;5053453;28;20024;-74
2023/06/17 09:28:08;;;;;;;12.82;5.05;;;;;;;20.74;48.96;101402.53;5044430;28;20040;-74
2023/06/17 09:30:36;;;;;;;13.57;5.57;;;;;;;20.81;49.70;101397.28;5055425;28;20039;-75
2023/06/17 09:33:02;;;;;;;16.67;5.93;;;;;;;20.86;46.15;101397.59;5052896;28;20035;-74
2023/06/17 09:35:28;;;;;;;15.60;5.70;;;;;;;20.92;47.07;101394.19;5044269;28;20025;-74
2023/06/17 09:37:53;;;;;;;16.40;4.97;;;;;;;21.05;47.73;101399.19;5059476;28;20104;-74
2023/06/17 09:40:19;;;;;;;17.92;6.70;;;;;;;21.06;46.83;101400.91;5060032;28;20108;-74
2023/06/17 09:42:46;;;;;;;17.25;6.20;;;;;;;21.12;44.37;101394.75;5061307;28;20029;-74
2023/06/17 09:45:18;;;;;;;12.70;5.18;;;;;;;21.16;46.78;101389.78;5052954;28;20086;-74
2023/06/17 09:47:50;;;;;;;16.13;6.05;;;;;;;21.26;46.92;101394.09;5057798;28;20035;-74
2023/06/17 09:50:16;;;;;;;16.85;5.95;;;;;;;21.34;47.20;101389.66;5058135;28;20021;-74
2023/06/17 09:52:42;;;;;;;19.65;6.72;;;;;;;21.38;43.26;101394.63;5057817;28;20116;-74
2023/06/17 09:55:09;;;;;;;16.67;5.88;;;;;;;21.44;46.70;101393.94;5056334;28;20452;-73
2023/06/17 09:57:35;;;;;;;16.40;5.90;;;;;;;21.42;48.42;101392.38;5043444;28;20481;-74
2023/06/17 10:00:01;;;;;;;19.50;6.18;;;;;;;21.51;48.40;101387.78;5056272;28;20498;-74
2023/06/17 10:02:27;;;;;;;13.35;5.00;;;;;;;21.51;51.36;101393.25;5049222;28;20028;-74
2023/06/17 10:04:53;;;;;;;15.10;5.45;;;;;;;21.50;52.89;101388.81;5051520;28;20029;-73
2023/06/17 10:07:22;;;;;;;13.07;5.22;;;;;;;21.36;49.73;101390.34;5054028;28;20079;-75
2023/06/17 10:09:47;;;;;;;11.63;5.00;;;;;;;21.37;49.40;101375.66;5050904;28;20020;-73
2023/06/17 10:12:13;;;;;;;16.17;5.95;;;;;;;21.56;46.13;101377.22;5048962;28;20040;-75
2023/06/17 10:14:39;;;;;;;17.60;6.25;;;;;;;21.77;43.92;101376.66;5055852;28;20028;-76
2023/06/17 10:17:09;;;;;;;20.55;5.68;;;;;;;21.90;46.46;101366.03;5049021;28;20022;-74
2023/06/17 10:19:37;;;;;;;15.70;6.00;;;;;;;22.05;46.68;101368.03;5062003;28;20119;-73
2023/06/17 10:22:07;;;;;;;15.43;5.90;;;;;;;22.10;49.72;101365.66;5060855;28;20040;-74
2023/06/17 10:24:34;;;;;;;12.98;5.53;;;;;;;22.02;47.85;101373.88;5056477;28;20101;-76
2023/06/17 10:27:03;;;;;;;14.60;5.80;;;;;;;22.07;45.86;101372.31;5045137;28;20044;-75
2023/06/17 10:29:28;;;;;;;12.15;4.93;;;;;;;22.04;46.34;101361.72;5069915;28;20089;-75
2023/06/17 10:31:53;;;;;;;15.70;6.15;;;;;;;22.05;46.68;101360.72;5063298;28;20497;-74
2023/06/17 10:34:22;;;;;;;16.77;6.18;;;;;;;22.15;46.11;101360.47;5060844;28;20021;-74
2023/06/17 10:36:51;;;;;;;15.85;6.28;;;;;;;22.22;44.58;101361.50;5060085;28;20029;-74
2023/06/17 10:39:16;;;;;;;14.85;5.57;;;;;;;22.33;46.17;101361.13;5062249;28;20030;-74
2023/06/17 10:41:41;;;;;;;18.33;6.65;;;;;;;22.43;48.04;101354.59;5044838;28;20025;-74
2023/06/17 10:44:32;;;;;;;16.35;6.43;;;;;;;22.47;47.28;101358.69;5045663;28;20476;-74
2023/06/17 10:46:58;;;;;;;19.50;6.75;;;;;;;22.50;50.76;101350.97;5059016;28;20112;-75
2023/06/17 10:49:35;;;;;;;16.17;6.30;;;;;;;22.57;48.31;101353.84;5063448;28;20033;-76
2023/06/17 10:52:02;;;;;;;18.45;6.13;;;;;;;22.56;53.27;101354.84;5062583;28;20029;-76
2023/06/17 10:54:32;;;;;;;16.45;6.05;;;;;;;22.53;48.44;101349.75;5060183;28;20044;-75
2023/06/17 10:57:00;;;;;;;13.30;5.35;;;;;;;22.60;47.60;101352.63;5061799;28;20029;-74
2023/06/17 10:59:26;;;;;;;15.82;6.40;;;;;;;22.60;48.92;101353.47;5057252;28;20017;-74
2023/06/17 11:01:58;;;;;;;18.52;6.70;;;;;;;22.75;47.56;101344.50;5043451;28;20021;-75
2023/06/17 11:04:27;;;;;;;16.33;6.28;;;;;;;22.79;46.51;101345.84;5050164;28;20024;-75
2023/06/17 11:06:52;;;;;;;13.63;5.32;;;;;;;22.79;46.08;101340.34;5050488;28;20076;-75
2023/06/17 11:09:17;;;;;;;16.88;6.50;;;;;;;22.83;47.88;101342.53;5072061;28;20050;-75